Metar Cercanos

 

LEPA - Palma De Mallorc, Spain
Distance from station: ONO 38km
Actualización: 18/08/2018 18:00
Few Clouds
Few Clouds
 Viento del NE
Viento: NE 15 km/h
Temperatura: 28°C
Indice Calor: 29°C
Rocío: 18°C
Humedad: 55%
Barómetro: 1018 hPa
Clouds: Few Clouds
Visibility: 10 km
Cloud details: Few Clouds 701 m
2018/08/18 16:00 LEPA 181600Z 05008KT 020V080 9999 FEW023TCU 28/18 Q1018 TEMPO NSC
LEMH - Mahon/Menorca Is, Spain
Distance from station: ENE 105km
Actualización: 18/08/2018 18:00
Few Clouds
Few Clouds
 Viento del NNE
Viento: NNE 22 km/h
Temperatura: 25°C
Rocío: 18°C
Humedad: 65%
Barómetro: 1018 hPa
Clouds: Few Clouds
Visibility: 10 km
Cloud details: Few Clouds 975 m
2018/08/18 16:00 LEMH 181600Z 02012KT 330V040 9999 FEW032 25/18 Q1018
 
LEIB - Ibiza/Es Codola, Spain
Distance from station: OSO 165km
Actualización: 18/08/2018 18:00
Muy nuboso
Muy nuboso
 Viento del varies
Viento: varies 4 km/h
Temperatura: 26°C
Rocío: 20°C
Humedad: 70%
Barómetro: 1019 hPa
Clouds: Muy nuboso
Visibility: 9 km
Cloud details: Few Clouds 610 m
Parcialmente nuboso 762 m
Muy nuboso 1067 m
2018/08/18 16:00 LEIB 181600Z VRB02KT 9000 FEW020TCU SCT025 BKN035 26/20 Q1019 BECMG NSW
LEBL - Barcelona Airpor, Spain
Distance from station: NNO 225km
Actualización: 18/08/2018 18:00
Few Clouds
Few Clouds
 Viento del SSO
Viento: SSO 15 km/h
Temperatura: 27°C
Indice Calor: 28°C
Rocío: 17°C
Humedad: 54%
Barómetro: 1018 hPa
Clouds: Few Clouds
Visibility: 10 km
Cloud details: Few Clouds 762 m
2018/08/18 16:00 LEBL 181600Z 21008KT 170V240 9999 FEW025 27/17 Q1018 NOSIG
 
LEVC - Valencia (civ/Mi, Spain
Distance from station: NO 188km
Actualización: 18/08/2018 18:00
Parcialmente nuboso
Parcialmente nuboso
 Viento del ESE
Viento: ESE 17 km/h
Temperatura: 27°C
Indice Calor: 28°C
Rocío: 18°C
Humedad: 58%
Barómetro: 1019 hPa
Clouds: Parcialmente nuboso
Visibility: 10 km
Cloud details: Parcialmente nuboso 914 m
2018/08/18 16:00 LEVC 181600Z 11009KT 060V150 9999 SCT030 27/18 Q1019 NOSIG
LEGE - Gerona/Costa Bra, Spain
Distance from station: N 276km
Actualización: 18/08/2018 18:00
Few Clouds
Few Clouds
 Viento del SSO
Viento: SSO 19 km/h
Temperatura: 27°C
Indice Calor: 27°C
Rocío: 15°C
Humedad: 48%
Barómetro: 1018 hPa
Clouds: Few Clouds
Visibility: 10 km
Cloud details: Few Clouds 1524 m
2018/08/18 16:00 LEGE 181600Z 20010KT 170V230 9999 FEW050 27/15 Q1018
 
LEAL - Alicante/El Alte, Spain
Distance from station: OSO 344km
Actualización: 18/08/2018 18:00
Parcialmente nuboso
Parcialmente nuboso
 Viento del E
Viento: E 24 km/h
Temperatura: 27°C
Indice Calor: 29°C
Rocío: 21°C
Humedad: 70%
Barómetro: 1018 hPa
Clouds: Parcialmente nuboso
Visibility: 10 km
Cloud details: Parcialmente nuboso 610 m
2018/08/18 16:00 LEAL 181600Z 08013KT 030V110 9999 SCT020 27/21 Q1018 NOSIG
LEAM - Almeria Airport, Spain
Distance from station: SSO 56km
Actualización: 18/08/2018 18:00
Few Clouds
Few Clouds
 Viento del ENE
Viento: ENE 31 km/h
Temperatura: 31°C
Indice Calor: 32°C
Rocío: 17°C
Humedad: 43%
Barómetro: 1015 hPa
Clouds: Few Clouds
Visibility: 10 km
Cloud details: Few Clouds 914 m
2018/08/18 16:00 LEAM 181600Z 07017KT 030V110 9999 FEW030 31/17 Q1015
 
LEZG - Zaragoza (mil/Ci, Spain
Distance from station: NO 431km
Actualización: 18/08/2018 18:00
Despejado
Despejado
 Viento del NO
Viento: NO 11 km/h
Temperatura: 28°C
Rocío: 10°C
Humedad: 32%
Barómetro: 1019 hPa
Resumen: Despejado
Visibility: greater than 10 km
2018/08/18 16:00 LEZG 181600Z 31006KT 250V010 CAVOK 28/10 Q1019
LEMD - Madrid/Barajas, Spain
Distance from station: ONO 234km
Actualización: 18/08/2018 18:00
Few Clouds
Few Clouds
 Viento del OSO
Viento: OSO 7 km/h, Racha: 26 km/h
Temperatura: 32°C
Rocío: 11°C
Humedad: 27%
Barómetro: 1017 hPa
Clouds: Few Clouds
Visibility: 10 km
Cloud details: Few Clouds 2073 m
2018/08/18 16:00 LEMD 181600Z 25004G14KT 9999 FEW068 32/11 Q1017 NOSIG
 
LEGR - Granada Airport, Spain
Distance from station: OSO 62km
Actualización: 18/08/2018 18:00
Few Clouds
Few Clouds
 Viento del SSE
Viento: SSE 20 km/h
Temperatura: 34°C
Rocío: 13°C
Humedad: 28%
Barómetro: 1016 hPa
Clouds: Few Clouds
Visibility: 10 km
Cloud details: Few Clouds 1067 m
Few Clouds 1219 m
2018/08/18 16:00 LEGR 181600Z 15011KT 120V200 9999 FEW035 FEW040CB 34/13 Q1016
LEMG - Malaga (civ/Mil), Spain
Distance from station: OSO 227km
Actualización: 18/08/2018 18:00
Few Clouds
Few Clouds
 Viento del SE
Viento: SE 13 km/h
Temperatura: 28°C
Indice Calor: 29°C
Rocío: 20°C
Humedad: 62%
Barómetro: 1015 hPa
Clouds: Few Clouds
Visibility: 10 km
Cloud details: Few Clouds 1067 m
2018/08/18 16:00 LEMG 181600Z 13007KT 080V200 9999 FEW035 28/20 Q1015 NOSIG
 
LEZL - Sevilla (civ/Mil, Spain
Distance from station: S 318km
Actualización: 18/08/2018 18:00
Despejado
Despejado
 Viento del ENE
Viento: ENE 13 km/h
Temperatura: 37°C
Rocío: 11°C
Humedad: 21%
Barómetro: 1011 hPa
Resumen: Despejado
Visibility: greater than 10 km
2018/08/18 16:00 LEZL 181600Z 07007KT 360V140 CAVOK 37/11 Q1011 NOSIG
LEVT - Vitoria, Spain
Distance from station: NO 226km
Actualización: 18/08/2018 18:00
Parcialmente nuboso
Parcialmente nuboso
 Viento del NNE
Viento: NNE 22 km/h
Temperatura: 21°C
Rocío: 11°C
Humedad: 53%
Barómetro: 1023 hPa
Clouds: Parcialmente nuboso
Visibility: 10 km
Cloud details: Parcialmente nuboso 1219 m
2018/08/18 16:00 LEVT 181600Z 03012KT 010V070 9999 SCT040 21/11 Q1023
 
LEBB - Bilbao/Sondica, Spain
Distance from station: NNO 235km
Actualización: 18/08/2018 18:00
Parcialmente nuboso
Parcialmente nuboso
 Viento del N
Viento: N 13 km/h
Temperatura: 24°C
Rocío: 14°C
Humedad: 54%
Barómetro: 1023 hPa
Clouds: Parcialmente nuboso
Visibility: 10 km
Cloud details: Few Clouds 1067 m
Parcialmente nuboso 1219 m
2018/08/18 16:00 LEBB 181600Z 01007KT 330V080 9999 FEW035 SCT040 24/14 Q1023 NOSIG
LESO - San Sebastian/Fu, Spain
Distance from station: N 231km
Actualización: 18/08/2018 18:00
Parcialmente nuboso
Parcialmente nuboso
 Viento del N
Viento: N 11 km/h
Temperatura: 24°C
Rocío: 18°C
Humedad: 69%
Barómetro: 1023 hPa
Clouds: Parcialmente nuboso
Visibility: 10 km
Cloud details: Parcialmente nuboso 914 m
2018/08/18 16:00 LESO 181600Z 36006KT 310V050 9999 SCT030 24/18 Q1023
 
LEVD - Valladolid(Mil/C, Spain
Distance from station: ONO 239km
Actualización: 18/08/2018 18:00
Despejado
Despejado
 Viento del ENE
Viento: ENE 15 km/h
Temperatura: 26°C
Rocío: 3°C
Humedad: 23%
Barómetro: 1021 hPa
Resumen: Despejado
Visibility: greater than 10 km
2018/08/18 16:00 LEVD 181600Z 07008KT 030V110 CAVOK 26/03 Q1021
LESA - Salamanca (civ/M, Spain
Distance from station: ONO 349km
Actualización: 18/08/2018 18:00
Few Clouds
Few Clouds
 Viento del ENE
Viento: ENE 11 km/h
Temperatura: 26°C
Rocío: 3°C
Humedad: 23%
Barómetro: 1020 hPa
Clouds: Few Clouds
Visibility: 10 km
Cloud details: Few Clouds 1372 m
2018/08/18 16:00 LESA 181600Z 06006KT 030V100 9999 FEW045 26/03 Q1020
 
LEXJ - Santander/Paraya, Spain
Distance from station: NNO 247km
Actualización: 18/08/2018 18:00
Few Clouds
Few Clouds
 Viento del NE
Viento: NE 15 km/h
Temperatura: 23°C
Rocío: 16°C
Humedad: 65%
Barómetro: 1023 hPa
Clouds: Few Clouds
Visibility: 10 km
Cloud details: Few Clouds 1341 m
2018/08/18 16:00 LEXJ 181600Z 05008KT 360V100 9999 FEW044 23/16 Q1023
LEAS - Asturias/Aviles, Spain
Distance from station: NO 214km
Actualización: 18/08/2018 18:00
Few Clouds
Few Clouds
 Viento del E
Viento: E 19 km/h
Temperatura: 22°C
Rocío: 15°C
Humedad: 65%
Barómetro: 1022 hPa
Clouds: Few Clouds
Visibility: 10 km
Cloud details: Few Clouds 2438 m
2018/08/18 16:00 LEAS 181600Z 09010KT 040V160 9999 FEW080 22/15 Q1022 NOSIG
 
LECO - La Coruna/Alvedr, Spain
Distance from station: ONO 222km
Actualización: 18/08/2018 18:00
Despejado
Despejado
 Viento del NNE
Viento: NNE 15 km/h
Temperatura: 26°C
Rocío: 14°C
Humedad: 48%
Barómetro: 1019 hPa
Resumen: Despejado
Visibility: greater than 10 km
2018/08/18 16:00 LECO 181600Z 03008KT 340V070 CAVOK 26/14 Q1019 NOSIG
LEVX - Vigo/Peinador, Spain
Distance from station: O 214km
Actualización: 18/08/2018 18:00
Despejado
Despejado
 Viento del E
Viento: E 13 km/h
Temperatura: 32°C
Rocío: 8°C
Humedad: 22%
Barómetro: 1017 hPa
Resumen: Despejado
Visibility: greater than 10 km
2018/08/18 16:00 LEVX 181600Z 08007KT 040V120 CAVOK 32/08 Q1017 NOSIG